Time;durP1;ratioP1;P1;durP2;ratioP2;P2;SDS_P1;SDS_P2;PMS_P1;PMS_P2;Temp;Humidity;BMP_temperature;BMP_pressure;BME280_temperature;BME280_humidity;BME280_pressure;Samples;Min_cycle;Max_cycle;Signal;HPM_P1;HPM_P2
2021/06/04 00:02:02;;;;;;;;;;;17.40;99.90;;;;;;5074645;28;20032;-78
2021/06/04 00:04:28;;;;;;;29.30;14.05;;;17.30;99.90;;;;;;5074575;28;19953;-79
2021/06/04 00:06:54;;;;;;;26.53;14.63;;;17.30;99.90;;;;;;5081180;28;20060;-78
2021/06/04 00:09:20;;;;;;;24.97;14.60;;;17.30;99.90;;;;;;5073727;28;20158;-78
2021/06/04 00:11:53;;;;;;;29.75;14.73;;;17.30;99.90;;;;;;5074765;28;20040;-78
2021/06/04 00:14:31;;;;;;;28.55;15.07;;;17.30;99.90;;;;;;5073107;28;20028;-78
2021/06/04 00:17:06;;;;;;;23.50;13.50;;;17.30;99.90;;;;;;5074150;28;20028;-78
2021/06/04 00:19:34;;;;;;;25.95;14.02;;;17.20;99.90;;;;;;5075491;28;20451;-78
2021/06/04 00:22:06;;;;;;;23.13;13.20;;;17.20;99.90;;;;;;5074269;28;20024;-78
2021/06/04 00:24:33;;;;;;;24.00;14.07;;;17.20;99.90;;;;;;5074451;28;20023;-78
2021/06/04 00:26:59;;;;;;;;;;;17.10;99.90;;;;;;5070471;28;20300;-78
2021/06/04 00:29:24;;;;;;;22.20;13.18;;;17.10;99.90;;;;;;5068335;28;19999;-78
2021/06/04 00:31:54;;;;;;;25.57;13.70;;;17.00;99.90;;;;;;5056510;28;20033;-77
2021/06/04 00:34:21;;;;;;;24.33;13.10;;;17.00;99.90;;;;;;5061642;28;20336;-77
2021/06/04 00:36:47;;;;;;;26.02;13.02;;;16.90;99.90;;;;;;5072702;28;20040;-78
2021/06/04 00:39:16;;;;;;;33.72;14.85;;;16.90;99.90;;;;;;5074578;28;20316;-78
2021/06/04 00:41:49;;;;;;;24.77;12.32;;;16.90;99.90;;;;;;5067707;28;20058;-78
2021/06/04 00:44:15;;;;;;;23.20;12.95;;;16.90;99.90;;;;;;5075232;28;20024;-78
2021/06/04 00:46:41;;;;;;;;;;;16.80;99.90;;;;;;5072585;28;20025;-78
2021/06/04 00:49:10;;;;;;;21.88;11.40;;;16.80;99.90;;;;;;5074097;28;20269;-78
2021/06/04 00:51:37;;;;;;;23.77;11.98;;;16.80;99.90;;;;;;5073008;28;20028;-77
2021/06/04 00:54:06;;;;;;;24.05;13.60;;;16.80;99.90;;;;;;5073355;28;20013;-78
2021/06/04 00:56:33;;;;;;;23.17;13.52;;;16.80;99.90;;;;;;5072816;28;20028;-78
2021/06/04 00:58:59;;;;;;;25.40;13.98;;;16.70;99.90;;;;;;5066412;28;20077;-78
2021/06/04 01:01:29;;;;;;;28.27;14.68;;;16.60;99.90;;;;;;5073405;28;20067;-78
2021/06/04 01:04:23;;;;;;;26.98;14.38;;;16.60;99.90;;;;;;5072731;28;20116;-78
2021/06/04 01:07:17;;;;;;;30.67;15.10;;;16.60;99.90;;;;;;5070483;28;20324;-77
2021/06/04 01:10:05;;;;;;;26.83;14.98;;;16.60;99.90;;;;;;5065307;28;20047;-78
2021/06/04 01:12:49;;;;;;;26.25;14.85;;;16.50;99.90;;;;;;5074652;28;20036;-79
2021/06/04 01:15:17;;;;;;;26.10;15.00;;;16.50;99.90;;;;;;5060002;28;20028;-78
2021/06/04 01:17:58;;;;;;;26.35;14.70;;;16.50;99.90;;;;;;5054259;28;20040;-78
2021/06/04 01:20:32;;;;;;;25.73;14.35;;;16.50;99.90;;;;;;5066623;28;20119;-78
2021/06/04 01:23:32;;;;;;;28.30;14.65;;;16.50;99.90;;;;;;5073906;28;20070;-78
2021/06/04 01:26:05;;;;;;;27.48;16.55;;;16.50;99.90;;;;;;5073927;28;20398;-78
2021/06/04 01:28:36;;;;;;;30.83;16.20;;;16.40;99.90;;;;;;5058022;28;20040;-78
2021/06/04 01:31:23;;;;;;;25.80;14.30;;;16.40;99.90;;;;;;5070271;28;20119;-78
2021/06/04 01:33:51;;;;;;;25.38;14.52;;;16.40;99.90;;;;;;5066066;28;20016;-78
2021/06/04 01:36:20;;;;;;;29.75;15.13;;;16.40;99.90;;;;;;5074141;28;20110;-78
2021/06/04 01:38:48;;;;;;;25.73;14.45;;;16.30;99.90;;;;;;5073227;28;20025;-77
2021/06/04 01:41:17;;;;;;;25.23;14.40;;;16.20;99.90;;;;;;5058189;28;20031;-77
2021/06/04 01:43:50;;;;;;;28.05;14.55;;;16.20;99.90;;;;;;5073865;28;20048;-78
2021/06/04 01:46:21;;;;;;;27.75;15.05;;;16.20;99.90;;;;;;5073773;28;20297;-78
2021/06/04 01:48:50;;;;;;;26.48;14.73;;;16.10;99.90;;;;;;5067039;28;20035;-77
2021/06/04 01:51:25;;;;;;;26.80;15.18;;;16.10;99.90;;;;;;5072476;28;20028;-78
2021/06/04 01:53:55;;;;;;;30.98;16.27;;;16.00;99.90;;;;;;5073989;28;20020;-78
2021/06/04 01:56:32;;;;;;;27.98;15.50;;;16.00;99.90;;;;;;5072335;28;20036;-76
2021/06/04 01:59:05;;;;;;;38.90;16.48;;;16.00;99.90;;;;;;5061997;28;20070;-77
2021/06/04 02:01:44;;;;;;;30.38;17.13;;;16.00;99.90;;;;;;5072859;28;20029;-78
2021/06/04 02:04:16;;;;;;;30.23;15.75;;;16.10;99.90;;;;;;5073190;28;20036;-77
2021/06/04 02:06:43;;;;;;;33.53;16.75;;;16.10;99.90;;;;;;5070737;28;20083;-78
2021/06/04 02:09:11;;;;;;;;;;;16.10;99.90;;;;;;5067985;28;20469;-78
2021/06/04 02:11:39;;;;;;;34.25;16.35;;;16.00;99.90;;;;;;5059140;28;19935;-77
2021/06/04 02:14:09;;;;;;;32.22;16.27;;;16.00;99.90;;;;;;5060101;28;20024;-77
2021/06/04 02:16:58;;;;;;;29.55;15.25;;;16.00;99.90;;;;;;5074394;28;20016;-78
2021/06/04 02:19:47;;;;;;;29.85;15.65;;;16.00;99.90;;;;;;5058997;28;20352;-77
2021/06/04 02:22:28;;;;;;;28.38;15.38;;;15.90;99.90;;;;;;5069906;28;20029;-77
2021/06/04 02:25:18;;;;;;;28.85;15.82;;;15.90;99.90;;;;;;5070937;28;20098;-78
2021/06/04 02:27:51;;;;;;;30.38;16.10;;;15.90;99.90;;;;;;5070137;28;20035;-78
2021/06/04 02:30:35;;;;;;;26.50;15.10;;;15.80;99.90;;;;;;5068253;28;20032;-78
2021/06/04 02:33:18;;;;;;;32.15;16.55;;;15.80;99.90;;;;;;5073562;28;20516;-78
2021/06/04 02:35:57;;;;;;;33.17;16.92;;;15.80;99.90;;;;;;5061730;28;20037;-77
2021/06/04 02:38:31;;;;;;;30.92;17.75;;;15.80;99.90;;;;;;5072382;28;20081;-78
2021/06/04 02:41:03;;;;;;;35.08;18.10;;;15.70;99.90;;;;;;5062976;28;20021;-78
2021/06/04 02:43:39;;;;;;;32.00;17.63;;;15.70;99.90;;;;;;5060813;28;20044;-77
2021/06/04 02:46:15;;;;;;;37.40;18.02;;;15.70;99.90;;;;;;5061562;28;20304;-78
2021/06/04 02:48:44;;;;;;;37.88;18.13;;;15.70;99.90;;;;;;5071615;28;20127;-78
2021/06/04 02:51:26;;;;;;;33.83;17.98;;;15.60;99.90;;;;;;5071878;28;20041;-77
2021/06/04 02:53:56;;;;;;;31.98;16.80;;;15.50;99.90;;;;;;5071481;28;20111;-78
2021/06/04 02:56:27;;;;;;;37.33;18.60;;;15.50;99.90;;;;;;5073692;28;20300;-77
2021/06/04 02:59:05;;;;;;;38.85;19.83;;;15.40;99.90;;;;;;5073780;28;20108;-76
2021/06/04 03:01:34;;;;;;;40.25;19.30;;;15.40;99.90;;;;;;5065291;28;20039;-78
2021/06/04 03:04:01;;;;;;;35.85;19.48;;;15.40;99.90;;;;;;5071923;28;20047;-77
2021/06/04 03:06:44;;;;;;;37.63;19.27;;;15.40;99.90;;;;;;5073758;28;20415;-77
2021/06/04 03:09:13;;;;;;;36.25;19.20;;;15.40;99.90;;;;;;5068602;28;20408;-77
2021/06/04 03:11:43;;;;;;;37.03;20.67;;;15.40;99.90;;;;;;5069865;28;20207;-77
2021/06/04 03:14:13;;;;;;;36.50;19.70;;;15.40;99.90;;;;;;5063867;28;20082;-76
2021/06/04 03:16:39;;;;;;;35.97;19.92;;;15.40;99.90;;;;;;5076058;28;20021;-77
2021/06/04 03:19:09;;;;;;;40.20;20.48;;;15.40;99.90;;;;;;5063271;28;20017;-77
2021/06/04 03:21:50;;;;;;;36.70;18.75;;;15.40;99.90;;;;;;5073795;28;20146;-78
2021/06/04 03:24:21;;;;;;;39.22;20.58;;;15.40;99.90;;;;;;5073494;28;20119;-77
2021/06/04 03:26:47;;;;;;;36.83;19.90;;;15.40;99.90;;;;;;5075807;28;20017;-77
2021/06/04 03:29:16;;;;;;;37.77;20.80;;;15.40;99.90;;;;;;5075913;28;20024;-77
2021/06/04 03:31:46;;;;;;;34.17;18.33;;;15.40;99.90;;;;;;5074179;28;20082;-78
2021/06/04 03:34:12;;;;;;;38.85;19.63;;;15.40;99.90;;;;;;5071376;28;20027;-77
2021/06/04 03:36:40;;;;;;;40.55;20.25;;;15.40;99.90;;;;;;5073857;28;20120;-78
2021/06/04 03:39:17;;;;;;;36.33;20.25;;;15.40;99.90;;;;;;5070959;28;20033;-77
2021/06/04 03:41:44;;;;;;;42.15;19.65;;;15.40;99.90;;;;;;5073639;28;20026;-78
2021/06/04 03:44:13;;;;;;;39.03;18.20;;;15.40;99.90;;;;;;5072600;28;20129;-77
2021/06/04 03:46:39;;;;;;;34.17;18.52;;;15.40;99.90;;;;;;5075214;28;20103;-78
2021/06/04 03:49:06;;;;;;;35.58;19.13;;;15.40;99.90;;;;;;5072199;28;20284;-78
2021/06/04 03:51:35;;;;;;;33.13;17.65;;;15.40;99.90;;;;;;5065328;28;20103;-77
2021/06/04 03:54:02;;;;;;;34.10;17.77;;;15.40;99.90;;;;;;5071448;28;20374;-77
2021/06/04 03:56:28;;;;;;;37.85;18.25;;;15.50;99.90;;;;;;5074673;28;20024;-77
2021/06/04 03:58:55;;;;;;;43.77;19.27;;;15.50;99.90;;;;;;5073792;28;20032;-78
2021/06/04 04:01:24;;;;;;;;;;;15.50;99.90;;;;;;5074380;28;20112;-78
2021/06/04 04:03:49;;;;;;;32.42;16.85;;;15.50;99.90;;;;;;5073609;28;20019;-77
2021/06/04 04:06:15;;;;;;;40.40;20.60;;;15.60;99.90;;;;;;5073214;28;20211;-77
2021/06/04 04:08:41;;;;;;;36.37;19.20;;;15.60;99.90;;;;;;5073484;28;20104;-77
2021/06/04 04:11:06;;;;;;;45.37;19.93;;;15.70;99.90;;;;;;5074761;28;20110;-77
2021/06/04 04:13:33;;;;;;;39.93;19.97;;;15.70;99.90;;;;;;5076629;28;20033;-77
2021/06/04 04:15:59;;;;;;;38.85;19.05;;;15.90;99.90;;;;;;5071278;28;20030;-77
2021/06/04 04:18:26;;;;;;;35.67;18.17;;;16.00;99.90;;;;;;5076369;28;20036;-77
2021/06/04 04:20:56;;;;;;;35.30;19.13;;;16.10;99.90;;;;;;5071283;28;20063;-77
2021/06/04 04:23:32;;;;;;;33.65;18.73;;;16.10;99.90;;;;;;5070740;28;20051;-77
2021/06/04 04:25:58;;;;;;;;;;;16.10;99.90;;;;;;5071769;28;20055;-77
2021/06/04 04:28:30;;;;;;;35.25;18.25;;;16.10;99.90;;;;;;5073838;28;19990;-78
2021/06/04 04:30:56;;;;;;;37.60;19.02;;;16.10;99.90;;;;;;5071069;28;20044;-78
2021/06/04 04:33:22;;;;;;;36.92;18.35;;;16.20;99.90;;;;;;5073090;28;20033;-77
2021/06/04 04:35:48;;;;;;;36.93;18.93;;;16.30;99.90;;;;;;5071124;28;20032;-78
2021/06/04 04:38:20;;;;;;;36.38;19.40;;;16.30;99.90;;;;;;5074098;28;20381;-77
2021/06/04 04:40:48;;;;;;;34.67;17.83;;;16.50;99.90;;;;;;5072306;28;20456;-77
2021/06/04 04:43:15;;;;;;;33.60;18.65;;;16.60;99.90;;;;;;5072365;28;20054;-77
2021/06/04 04:45:41;;;;;;;32.13;18.73;;;16.80;99.90;;;;;;5072351;28;20108;-78
2021/06/04 04:48:08;;;;;;;31.83;17.73;;;16.90;99.90;;;;;;5071593;28;20123;-77
2021/06/04 04:50:35;;;;;;;35.88;18.30;;;17.00;99.90;;;;;;5072536;28;20027;-77
2021/06/04 04:53:03;;;;;;;38.30;19.38;;;17.10;99.90;;;;;;5069836;28;20035;-77
2021/06/04 04:55:31;;;;;;;34.42;19.15;;;17.20;99.90;;;;;;5073435;28;20056;-77
2021/06/04 04:57:57;;;;;;;41.63;19.13;;;17.20;99.90;;;;;;5074165;28;20346;-78
2021/06/04 05:00:26;;;;;;;49.95;19.90;;;17.20;99.90;;;;;;5069104;28;20016;-77
2021/06/04 05:02:52;;;;;;;43.50;20.77;;;17.20;99.90;;;;;;5071456;28;20507;-77
2021/06/04 05:05:21;;;;;;;40.63;19.73;;;17.30;99.90;;;;;;5073005;28;20103;-78
2021/06/04 05:07:47;;;;;;;37.00;19.67;;;17.30;99.90;;;;;;5072962;28;20471;-78
2021/06/04 05:10:13;;;;;;;34.90;19.90;;;17.40;99.90;;;;;;5073312;28;20112;-77
2021/06/04 05:12:39;;;;;;;;;;;17.60;99.90;;;;;;5072377;28;20416;-77
2021/06/04 05:15:07;;;;;;;34.85;18.73;;;17.60;99.90;;;;;;5070973;28;19998;-78
2021/06/04 05:17:33;;;;;;;36.25;19.42;;;17.70;99.90;;;;;;5069789;28;20053;-77
2021/06/04 05:19:59;;;;;;;34.77;18.07;;;17.70;99.90;;;;;;5074467;28;20049;-77
2021/06/04 05:22:25;;;;;;;46.23;19.13;;;17.80;99.90;;;;;;5067992;28;20071;-78
2021/06/04 05:24:50;;;;;;;33.23;16.97;;;17.90;99.90;;;;;;5068558;28;20328;-77
2021/06/04 05:27:16;;;;;;;32.93;17.67;;;17.90;99.90;;;;;;5073858;28;20119;-77
2021/06/04 05:29:42;;;;;;;34.17;17.87;;;18.00;99.90;;;;;;5070260;28;20655;-78
2021/06/04 05:32:08;;;;;;;39.20;18.20;;;18.10;99.90;;;;;;5072082;28;20403;-77
2021/06/04 05:34:34;;;;;;;33.60;17.60;;;18.20;99.90;;;;;;5071101;28;20051;-77
2021/06/04 05:37:00;;;;;;;34.42;18.77;;;18.20;99.90;;;;;;5071444;28;20451;-77
2021/06/04 05:39:27;;;;;;;35.80;17.60;;;18.40;99.90;;;;;;5070270;28;20039;-77
2021/06/04 05:42:00;;;;;;;;;;;18.50;99.90;;;;;;5071125;28;20124;-77
2021/06/04 05:44:28;;;;;;;34.85;16.98;;;18.60;99.90;;;;;;5086420;28;19920;-77
2021/06/04 05:47:00;;;;;;;31.70;17.92;;;18.70;99.90;;;;;;5071524;28;20086;-77
2021/06/04 05:49:27;;;;;;;32.85;18.15;;;18.80;99.90;;;;;;5067292;28;20035;-77
2021/06/04 05:51:54;;;;;;;31.80;17.45;;;18.80;99.90;;;;;;5069194;28;20075;-78
2021/06/04 05:54:21;;;;;;;33.22;17.17;;;18.90;99.90;;;;;;5070354;28;20024;-78
2021/06/04 05:56:47;;;;;;;29.77;15.88;;;19.00;99.90;;;;;;5071888;28;20039;-78
2021/06/04 05:59:15;;;;;;;34.60;17.53;;;19.00;99.90;;;;;;5070103;28;20025;-77
2021/06/04 06:01:41;;;;;;;32.13;15.93;;;19.00;99.90;;;;;;5069025;28;20382;-78
2021/06/04 06:04:07;;;;;;;;;;;19.00;99.90;;;;;;5072164;28;20033;-78
2021/06/04 06:06:34;;;;;;;32.65;16.02;;;19.00;99.90;;;;;;5070967;28;19915;-78
2021/06/04 06:09:00;;;;;;;33.25;17.35;;;19.00;99.90;;;;;;5070296;28;20037;-78
2021/06/04 06:11:27;;;;;;;33.80;17.43;;;19.00;99.90;;;;;;5070663;28;20032;-78
2021/06/04 06:13:56;;;;;;;36.97;19.10;;;19.00;99.90;;;;;;5070033;28;20158;-78
2021/06/04 06:16:25;;;;;;;33.58;18.77;;;18.90;99.90;;;;;;5071107;28;20048;-78
2021/06/04 06:18:50;;;;;;;38.05;19.73;;;18.90;99.90;;;;;;5071458;28;20035;-78
2021/06/04 06:21:16;;;;;;;33.43;18.57;;;18.90;99.90;;;;;;5070348;28;20037;-78
2021/06/04 06:23:43;;;;;;;40.03;20.40;;;19.00;99.90;;;;;;5069412;28;20039;-78
2021/06/04 06:26:18;;;;;;;30.67;18.75;;;19.00;99.90;;;;;;5071477;28;20045;-78
2021/06/04 06:28:45;;;;;;;31.63;18.00;;;19.10;99.90;;;;;;5065222;28;20112;-79
2021/06/04 06:31:16;;;;;;;;;;;19.10;99.90;;;;;;5068930;28;20617;-78
2021/06/04 06:33:42;;;;;;;36.08;19.60;;;19.30;99.90;;;;;;5070619;28;20011;-76
2021/06/04 06:36:11;;;;;;;32.63;18.98;;;19.40;99.90;;;;;;5069086;28;20374;-77
2021/06/04 06:38:37;;;;;;;38.05;20.98;;;19.40;99.90;;;;;;5069178;28;20021;-77
2021/06/04 06:41:07;;;;;;;34.53;18.23;;;19.50;99.90;;;;;;5068926;28;20066;-78
2021/06/04 06:43:35;;;;;;;38.38;17.90;;;19.50;99.90;;;;;;5069645;28;20028;-78
2021/06/04 06:46:02;;;;;;;34.10;16.65;;;19.50;99.90;;;;;;5073132;28;20396;-78
2021/06/04 06:48:28;;;;;;;;;;;19.50;99.90;;;;;;5076414;28;20032;-79
2021/06/04 06:50:54;;;;;;;27.23;14.35;;;19.50;99.90;;;;;;5072483;28;19953;-78
2021/06/04 06:53:23;;;;;;;28.60;14.27;;;19.40;99.90;;;;;;5074347;28;20113;-77
2021/06/04 06:55:50;;;;;;;25.20;14.10;;;19.50;99.90;;;;;;5074718;28;20028;-78
2021/06/04 06:58:16;;;;;;;25.98;13.60;;;19.60;99.90;;;;;;5073306;28;20095;-78
2021/06/04 07:00:44;;;;;;;;;;;19.60;99.90;;;;;;5072933;28;20085;-78
2021/06/04 07:03:12;;;;;;;26.10;14.68;;;19.60;99.90;;;;;;5076216;28;19935;-79
2021/06/04 07:05:38;;;;;;;27.50;14.35;;;19.60;99.90;;;;;;5072893;28;20043;-79
2021/06/04 07:08:06;;;;;;;31.73;15.90;;;19.70;99.90;;;;;;5071376;28;20048;-78
2021/06/04 07:10:33;;;;;;;30.80;15.32;;;19.80;99.90;;;;;;5072949;28;20032;-78
2021/06/04 07:13:05;;;;;;;24.52;14.85;;;19.80;99.90;;;;;;5073579;28;20114;-78
2021/06/04 07:15:31;;;;;;;30.95;15.52;;;19.90;99.90;;;;;;5073483;28;20028;-78
2021/06/04 07:17:59;;;;;;;26.25;15.38;;;20.00;99.90;;;;;;5071593;28;20087;-78
2021/06/04 07:20:27;;;;;;;28.70;15.63;;;20.00;99.90;;;;;;5074359;28;20048;-79
2021/06/04 07:22:55;;;;;;;30.27;15.18;;;20.10;99.90;;;;;;5074165;28;20114;-78
2021/06/04 07:25:26;;;;;;;27.00;15.75;;;20.20;99.90;;;;;;5075486;28;20032;-79
2021/06/04 07:27:52;;;;;;;25.80;14.40;;;20.30;99.90;;;;;;5086861;28;20063;-79
2021/06/04 07:30:23;;;;;;;22.48;13.73;;;20.50;99.90;;;;;;5071129;28;20489;-79
2021/06/04 07:32:50;;;;;;;30.58;15.70;;;20.50;99.90;;;;;;5073443;28;20043;-79
2021/06/04 07:35:21;;;;;;;27.70;13.70;;;20.50;99.90;;;;;;5065594;28;20035;-79
2021/06/04 07:37:47;;;;;;;35.83;17.23;;;20.60;99.90;;;;;;5074270;28;20032;-80
2021/06/04 07:40:19;;;;;;;25.87;14.87;;;20.60;99.90;;;;;;5071633;28;20047;-79
2021/06/04 07:42:45;;;;;;;34.00;15.68;;;20.60;99.90;;;;;;5072568;28;20036;-80
2021/06/04 07:45:11;;;;;;;32.90;16.65;;;20.80;99.90;;;;;;5071994;28;20056;-79
2021/06/04 07:47:38;;;;;;;28.75;16.63;;;21.10;99.90;;;;;;5074256;28;20420;-81
2021/06/04 07:50:07;;;;;;;24.67;15.18;;;21.30;99.90;;;;;;5073911;28;20039;-81
2021/06/04 07:52:32;;;;;;;30.33;16.33;;;21.60;99.90;;;;;;5074654;28;20127;-79
2021/06/04 07:54:58;;;;;;;27.30;15.30;;;21.80;99.90;;;;;;5072437;28;20108;-81
2021/06/04 07:57:25;;;;;;;25.80;15.60;;;22.00;99.90;;;;;;5073308;28;20039;-80
2021/06/04 07:59:51;;;;;;;26.15;13.13;;;22.20;99.90;;;;;;5074129;28;20028;-80
2021/06/04 08:02:17;;;;;;;29.47;15.17;;;22.20;99.90;;;;;;5075417;28;20296;-80
2021/06/04 08:04:42;;;;;;;24.40;14.70;;;22.40;99.90;;;;;;5075814;28;20055;-80
2021/06/04 08:07:08;;;;;;;25.53;13.97;;;22.40;99.90;;;;;;5074643;28;20044;-79
2021/06/04 08:09:34;;;;;;;30.55;15.75;;;22.40;99.90;;;;;;5072633;28;20043;-81
2021/06/04 08:12:03;;;;;;;28.20;15.33;;;22.20;99.90;;;;;;5073018;28;20041;-80
2021/06/04 08:14:30;;;;;;;24.52;14.45;;;22.40;99.90;;;;;;5071846;28;20050;-81
2021/06/04 08:16:58;;;;;;;25.65;14.60;;;22.70;99.90;;;;;;5071871;28;20033;-80
2021/06/04 08:19:25;;;;;;;21.95;13.52;;;22.70;99.90;;;;;;5073864;28;20020;-81
2021/06/04 08:21:53;;;;;;;23.77;13.57;;;22.90;99.90;;;;;;5072378;28;20043;-81
2021/06/04 08:24:23;;;;;;;21.08;12.35;;;23.00;99.90;;;;;;5073250;28;20012;-81
2021/06/04 08:26:51;;;;;;;25.30;13.07;;;23.30;99.90;;;;;;5073436;28;20316;-81
2021/06/04 08:29:17;;;;;;;19.85;12.77;;;23.50;99.90;;;;;;5072809;28;20024;-81
2021/06/04 08:31:44;;;;;;;20.63;13.05;;;23.50;99.90;;;;;;5072616;28;20027;-81
2021/06/04 08:34:11;;;;;;;19.10;12.57;;;23.60;99.90;;;;;;5073919;28;20025;-81
2021/06/04 08:36:40;;;;;;;28.25;13.25;;;23.80;99.90;;;;;;5069312;28;20090;-81
2021/06/04 08:39:21;;;;;;;26.92;13.65;;;23.80;99.90;;;;;;5070435;28;20062;-80
2021/06/04 08:41:55;;;;;;;25.33;14.15;;;23.60;99.90;;;;;;5072253;28;20398;-81
2021/06/04 08:44:49;;;;;;;27.60;13.93;;;23.40;99.90;;;;;;5075262;28;20131;-82
2021/06/04 08:47:23;;;;;;;20.35;12.65;;;23.50;99.90;;;;;;5074821;28;20017;-82
2021/06/04 08:50:06;;;;;;;22.83;14.30;;;23.40;99.90;;;;;;5071773;28;20305;-80
2021/06/04 08:52:53;;;;;;;22.90;12.82;;;23.20;99.90;;;;;;5071529;28;20036;-79
2021/06/04 08:55:37;;;;;;;21.45;12.13;;;23.30;99.90;;;;;;5073231;28;20147;-79
2021/06/04 08:58:35;;;;;;;22.48;12.15;;;23.20;99.90;;;;;;5071996;28;20175;-80
2021/06/04 09:01:16;;;;;;;22.08;12.27;;;23.20;99.90;;;;;;5057492;28;20051;-82
2021/06/04 09:03:50;;;;;;;24.23;11.73;;;23.20;99.90;;;;;;5071332;28;20020;-78
2021/06/04 09:06:41;;;;;;;23.23;12.60;;;23.10;99.90;;;;;;5071322;28;20363;-79
2021/06/04 09:09:24;;;;;;;23.23;11.98;;;23.00;99.90;;;;;;5069565;28;20020;-80
2021/06/04 09:11:57;;;;;;;21.63;12.60;;;22.90;99.90;;;;;;5071789;28;20141;-79
2021/06/04 09:14:23;;;;;;;21.80;11.85;;;22.80;99.90;;;;;;5070201;28;20021;-79
2021/06/04 09:17:08;;;;;;;21.10;11.32;;;22.90;99.90;;;;;;5071749;28;20028;-79
2021/06/04 09:19:46;;;;;;;20.88;11.45;;;23.00;99.90;;;;;;5070225;28;20060;-80
2021/06/04 09:22:11;;;;;;;19.95;11.93;;;23.10;99.90;;;;;;5072196;28;20478;-80
2021/06/04 09:24:47;;;;;;;23.40;13.40;;;23.20;99.90;;;;;;5070055;28;20037;-80
2021/06/04 09:27:31;;;;;;;23.47;12.83;;;23.20;99.90;;;;;;5071481;28;20040;-77
2021/06/04 09:30:17;;;;;;;21.70;12.32;;;23.30;99.90;;;;;;5072118;28;20031;-79
2021/06/04 09:33:00;;;;;;;25.77;13.90;;;23.10;99.90;;;;;;5070288;28;20412;-79
2021/06/04 09:35:25;;;;;;;23.98;13.75;;;23.10;99.90;;;;;;5071062;28;20024;-79
2021/06/04 09:38:17;;;;;;;22.27;13.30;;;22.90;99.90;;;;;;5120228;27;20144;-82
2021/06/04 09:40:44;;;;;;;22.70;12.55;;;23.10;99.90;;;;;;5100041;28;20044;-81
2021/06/04 09:43:22;;;;;;;23.33;12.90;;;23.20;99.90;;;;;;5085966;28;20065;-80
2021/06/04 09:46:01;;;;;;;29.17;14.45;;;23.20;99.90;;;;;;5079876;28;20305;-79
2021/06/04 09:48:38;;;;;;;25.45;15.35;;;23.30;99.90;;;;;;5083996;28;20055;-79
2021/06/04 09:51:30;;;;;;;31.88;16.27;;;23.30;99.90;;;;;;5077351;28;20487;-80
2021/06/04 09:54:17;;;;;;;21.95;13.18;;;23.30;99.90;;;;;;5084006;28;20130;-79
2021/06/04 09:56:42;;;;;;;28.27;15.05;;;23.30;99.90;;;;;;5088089;28;20040;-81
2021/06/04 09:59:13;;;;;;;27.30;14.53;;;23.30;99.90;;;;;;5089012;28;20020;-79
2021/06/04 10:01:46;;;;;;;23.33;13.20;;;23.40;99.90;;;;;;5088868;28;20524;-80
2021/06/04 10:04:32;;;;;;;20.88;13.35;;;23.40;99.90;;;;;;5087287;28;20017;-80
2021/06/04 10:07:06;;;;;;;25.25;13.63;;;23.40;99.90;;;;;;5087276;28;20716;-82
2021/06/04 10:09:40;;;;;;;22.00;12.60;;;23.50;99.90;;;;;;5087850;28;20725;-80
2021/06/04 10:12:17;;;;;;;24.92;12.45;;;23.40;99.90;;;;;;5087119;28;20040;-79
2021/06/04 10:18:00;;;;;;;21.48;10.52;;;23.20;99.90;;;;;;5087414;28;20035;-82
2021/06/04 10:20:48;;;;;;;18.40;10.98;;;23.10;99.90;;;;;;5088117;28;20047;-81
2021/06/04 10:23:40;;;;;;;21.42;12.20;;;23.10;99.90;;;;;;5088398;28;20111;-80
2021/06/04 10:26:20;;;;;;;18.42;11.43;;;23.00;99.90;;;;;;5086439;28;20026;-81
2021/06/04 10:28:51;;;;;;;22.58;12.15;;;23.10;99.90;;;;;;5087982;28;20418;-81
2021/06/04 10:31:16;;;;;;;20.25;11.50;;;23.00;99.90;;;;;;5088537;28;20028;-80
2021/06/04 10:34:03;;;;;;;25.20;12.17;;;22.80;99.90;;;;;;5084767;28;20033;-81
2021/06/04 10:36:38;;;;;;;18.73;10.68;;;23.00;99.90;;;;;;5086533;28;20098;-80
2021/06/04 10:39:13;;;;;;;20.55;12.57;;;23.00;99.90;;;;;;5086912;28;20031;-81
2021/06/04 10:42:21;;;;;;;19.38;9.70;;;23.10;99.90;;;;;;5087023;28;20356;-80
2021/06/04 10:45:04;;;;;;;23.52;12.38;;;23.30;99.90;;;;;;5083544;28;20327;-80
2021/06/04 10:47:58;;;;;;;21.92;12.48;;;23.40;99.90;;;;;;5081923;28;20035;-80
2021/06/04 10:50:54;;;;;;;20.50;11.18;;;23.40;99.90;;;;;;5068495;28;20126;-81
2021/06/04 10:53:45;;;;;;;15.45;8.88;;;23.50;99.90;;;;;;5068976;28;20411;-80
2021/06/04 10:56:23;;;;;;;14.65;8.73;;;23.40;99.90;;;;;;5067497;28;20033;-80
2021/06/04 10:59:01;;;;;;;18.30;10.85;;;23.30;99.90;;;;;;5074017;28;20016;-80
2021/06/04 11:01:39;;;;;;;11.32;6.43;;;23.50;99.90;;;;;;5073471;28;20055;-80
2021/06/04 11:04:35;;;;;;;12.43;6.72;;;23.60;99.90;;;;;;5069244;28;20020;-78
2021/06/04 11:07:18;;;;;;;9.65;6.60;;;23.80;99.90;;;;;;5060922;28;20373;-80
2021/06/04 11:10:13;;;;;;;14.73;9.27;;;23.80;99.90;;;;;;5071565;28;20469;-79
2021/06/04 11:13:06;;;;;;;17.25;9.38;;;24.00;99.90;;;;;;5070286;28;20090;-79
2021/06/04 11:15:54;;;;;;;17.40;8.55;;;24.00;99.90;;;;;;5071852;28;20036;-78
2021/06/04 11:18:49;;;;;;;18.95;9.98;;;24.00;99.90;;;;;;5071441;28;20397;-79
2021/06/04 11:21:33;;;;;;;14.02;8.18;;;24.10;99.90;;;;;;5071498;28;20047;-78
2021/06/04 11:24:31;;;;;;;20.83;9.95;;;24.10;99.90;;;;;;5068706;28;20066;-79
2021/06/04 11:26:57;;;;;;;19.15;9.00;;;24.10;99.90;;;;;;5063261;28;20028;-79
2021/06/04 11:29:27;;;;;;;10.30;7.40;;;24.20;99.90;;;;;;5073546;28;20194;-78
2021/06/04 11:32:12;;;;;;;18.83;10.05;;;24.20;99.90;;;;;;5062272;28;20424;-80
2021/06/04 11:34:53;;;;;;;17.85;10.30;;;24.20;99.90;;;;;;5069218;28;20063;-81
2021/06/04 11:37:41;;;;;;;18.38;10.90;;;24.20;99.90;;;;;;5063423;28;20097;-80
2021/06/04 11:40:17;;;;;;;18.75;9.68;;;24.20;99.90;;;;;;5069049;28;20373;-80
2021/06/04 11:43:18;;;;;;;18.42;9.18;;;24.30;99.90;;;;;;5061499;28;20411;-79
2021/06/04 11:46:12;;;;;;;22.98;11.77;;;24.40;99.90;;;;;;5063809;28;20024;-80
2021/06/04 11:49:01;;;;;;;17.52;8.65;;;24.30;99.90;;;;;;5071736;28;20416;-80
2021/06/04 11:51:29;;;;;;;14.13;8.98;;;24.30;99.90;;;;;;5075330;28;20025;-79
2021/06/04 11:54:16;;;;;;;14.93;6.72;;;24.40;99.90;;;;;;5063367;28;20117;-81
2021/06/04 11:56:44;;;;;;;7.88;5.05;;;24.40;99.90;;;;;;5068183;28;20032;-79
2021/06/04 11:59:32;;;;;;;8.77;6.25;;;24.40;99.90;;;;;;5068393;28;20036;-80
2021/06/04 12:02:06;;;;;;;15.25;6.18;;;24.40;99.90;;;;;;5066571;28;20024;-79
2021/06/04 12:04:31;;;;;;;13.98;6.22;;;24.50;99.90;;;;;;5053106;28;21145;-80
2021/06/04 12:07:34;;;;;;;10.18;7.90;;;24.70;99.90;;;;;;5067061;28;20054;-79
2021/06/04 12:10:00;;;;;;;18.85;10.60;;;24.50;99.90;;;;;;5069794;28;20040;-79
2021/06/04 12:12:26;;;;;;;20.45;10.82;;;24.40;99.90;;;;;;5071487;28;20536;-80
2021/06/04 12:14:55;;;;;;;17.30;10.90;;;24.50;99.90;;;;;;5071034;28;20701;-79
2021/06/04 12:17:35;;;;;;;19.85;11.52;;;24.70;99.90;;;;;;5072608;28;20047;-77
2021/06/04 12:20:27;;;;;;;14.93;8.95;;;24.70;99.90;;;;;;5071993;28;20427;-80
2021/06/04 12:22:58;;;;;;;13.70;8.57;;;24.70;99.90;;;;;;5071560;28;20052;-79
2021/06/04 12:25:45;;;;;;;17.55;10.45;;;24.60;99.90;;;;;;5072179;28;20074;-78
2021/06/04 12:28:23;;;;;;;23.15;11.43;;;24.50;99.90;;;;;;5069500;28;20035;-78
2021/06/04 12:30:54;;;;;;;21.17;13.43;;;24.50;99.90;;;;;;5071245;28;20445;-79
2021/06/04 12:33:54;;;;;;;23.73;13.52;;;24.70;99.90;;;;;;5070836;28;20040;-82
2021/06/04 12:36:38;;;;;;;27.98;14.35;;;24.70;99.90;;;;;;5059665;28;20045;-79
2021/06/04 12:39:29;;;;;;;18.70;11.52;;;24.80;99.90;;;;;;5072934;28;20032;-79
2021/06/04 12:42:29;;;;;;;24.83;13.32;;;25.00;99.90;;;;;;5069882;28;20046;-78
2021/06/04 12:45:16;;;;;;;20.80;12.50;;;24.80;99.90;;;;;;5049889;28;20133;-79
2021/06/04 12:47:54;;;;;;;22.05;12.32;;;24.80;99.90;;;;;;5071532;28;20438;-79
2021/06/04 12:50:39;;;;;;;25.58;15.00;;;24.70;99.90;;;;;;5070648;28;20032;-79
2021/06/04 12:53:23;;;;;;;21.20;12.57;;;24.60;99.90;;;;;;5071220;28;20036;-82
2021/06/04 12:55:59;;;;;;;21.65;12.95;;;24.70;99.90;;;;;;5071249;28;20078;-78
2021/06/04 12:58:50;;;;;;;21.13;12.43;;;24.70;99.90;;;;;;5069491;28;20033;-80
2021/06/04 13:01:25;;;;;;;24.60;11.63;;;24.70;99.90;;;;;;5071083;28;20177;-80
2021/06/04 13:04:40;;;;;;;24.40;11.63;;;24.80;99.90;;;;;;5062403;28;20033;-79
2021/06/04 13:07:23;;;;;;;20.90;12.73;;;24.80;99.90;;;;;;5012792;28;20079;-79